Time;durP1;ratioP1;P1;durP2;ratioP2;P2;SDS_P1;SDS_P2;PMS_P1;PMS_P2;Temp;Humidity;BMP_temperature;BMP_pressure;BME280_temperature;BME280_humidity;BME280_pressure;Samples;Min_cycle;Max_cycle;Signal;HPM_P1;HPM_P2
2022/11/12 00:01:31;;;;;;;2.20;2.00;;;6.90;99.90;;;;;;7370960;19;20389;-76
2022/11/12 00:04:15;;;;;;;2.25;2.00;;;6.90;99.90;;;;;;7371320;19;20403;-76
2022/11/12 00:07:00;;;;;;;2.20;2.00;;;6.80;99.90;;;;;;7371135;19;20343;-76
2022/11/12 00:09:44;;;;;;;2.60;2.10;;;6.80;99.90;;;;;;7373498;19;20343;-76
2022/11/12 00:12:28;;;;;;;2.40;2.20;;;6.80;99.90;;;;;;7370001;19;20871;-77
2022/11/12 00:15:12;;;;;;;2.40;2.20;;;6.80;99.90;;;;;;7374192;19;21338;-75
2022/11/12 00:17:57;;;;;;;2.65;2.25;;;6.80;99.90;;;;;;7373353;19;21274;-76
2022/11/12 00:20:41;;;;;;;2.47;2.27;;;6.80;99.90;;;;;;7375871;19;20367;-77
2022/11/12 00:23:25;;;;;;;3.35;2.60;;;6.90;99.90;;;;;;7368679;19;20858;-76
2022/11/12 00:26:09;;;;;;;2.97;2.43;;;6.70;99.90;;;;;;7371406;19;20376;-76
2022/11/12 00:28:54;;;;;;;2.65;2.35;;;6.70;99.90;;;;;;7366985;19;20924;-76
2022/11/12 00:31:38;;;;;;;3.00;2.70;;;6.60;99.90;;;;;;7370108;19;21009;-75
2022/11/12 00:34:22;;;;;;;2.40;2.20;;;6.60;99.90;;;;;;7370717;19;20343;-76
2022/11/12 00:37:07;;;;;;;2.10;2.00;;;6.50;99.90;;;;;;7368591;19;20378;-76
2022/11/12 00:39:51;;;;;;;2.50;2.30;;;6.50;99.90;;;;;;7372499;19;20353;-76
2022/11/12 00:42:35;;;;;;;2.60;2.40;;;6.50;99.90;;;;;;7367069;19;20385;-75
2022/11/12 00:45:19;;;;;;;2.70;2.40;;;6.50;99.90;;;;;;7369440;19;20912;-76
2022/11/12 00:48:03;;;;;;;2.67;2.47;;;6.40;99.90;;;;;;7368655;19;21099;-76
2022/11/12 00:50:47;;;;;;;2.50;2.30;;;6.40;99.90;;;;;;7371633;19;20387;-76
2022/11/12 00:53:31;;;;;;;2.88;2.60;;;6.40;99.90;;;;;;7366890;19;20408;-76
2022/11/12 00:56:15;;;;;;;2.88;2.42;;;6.40;99.90;;;;;;7371477;19;20345;-76
2022/11/12 00:58:59;;;;;;;3.28;2.50;;;6.40;99.90;;;;;;7371241;19;20384;-75
2022/11/12 01:01:50;;;;;;;3.50;2.90;;;6.30;99.90;;;;;;7367932;19;20370;-76
2022/11/12 01:04:34;;;;;;;3.17;2.65;;;6.20;99.90;;;;;;7372332;19;20368;-76
2022/11/12 01:07:19;;;;;;;2.53;2.33;;;6.20;99.90;;;;;;7370357;19;20838;-76
2022/11/12 01:10:03;;;;;;;3.40;2.97;;;6.30;99.90;;;;;;7372777;19;20363;-76
2022/11/12 01:12:47;;;;;;;3.05;2.60;;;6.10;99.90;;;;;;7365252;19;21025;-77
2022/11/12 01:15:31;;;;;;;3.10;2.80;;;6.20;99.90;;;;;;7371136;19;20355;-76
2022/11/12 01:18:15;;;;;;;3.40;3.10;;;6.10;99.90;;;;;;7369902;19;20338;-76
2022/11/12 01:21:01;;;;;;;3.00;2.75;;;6.10;99.90;;;;;;7369785;19;20395;-77
2022/11/12 01:23:45;;;;;;;2.80;2.55;;;6.00;99.90;;;;;;7366708;19;20389;-76
2022/11/12 01:26:29;;;;;;;2.53;2.33;;;6.00;99.90;;;;;;7370556;19;20339;-76
2022/11/12 01:29:13;;;;;;;2.50;2.30;;;6.00;99.90;;;;;;7370955;19;21107;-77
2022/11/12 01:31:57;;;;;;;2.70;2.30;;;6.00;99.90;;;;;;7366690;19;20346;-76
2022/11/12 01:34:41;;;;;;;2.43;2.23;;;6.00;99.90;;;;;;7368520;19;20354;-76
2022/11/12 01:37:25;;;;;;;2.50;2.30;;;6.00;99.90;;;;;;7367106;19;20372;-75
2022/11/12 01:40:09;;;;;;;2.50;2.30;;;6.00;99.90;;;;;;7371766;19;21049;-78
2022/11/12 01:42:54;;;;;;;2.42;2.22;;;6.00;99.90;;;;;;7372682;19;20399;-75
2022/11/12 01:45:39;;;;;;;2.38;2.17;;;6.00;99.90;;;;;;7377431;19;20360;-76
2022/11/12 01:48:39;;;;;;;2.30;2.10;;;6.00;99.90;;;;;;7371206;19;21276;-76
2022/11/12 01:51:25;;;;;;;2.40;2.20;;;6.00;99.90;;;;;;7378136;19;20339;-75
2022/11/12 01:54:10;;;;;;;3.10;2.20;;;6.00;99.90;;;;;;7375162;19;21058;-76
2022/11/12 01:56:54;;;;;;;2.35;2.15;;;6.00;99.90;;;;;;7376838;19;20838;-75
2022/11/12 01:59:41;;;;;;;2.50;2.30;;;5.90;99.90;;;;;;7373487;19;20351;-77
2022/11/12 02:02:25;;;;;;;2.50;2.30;;;5.90;99.90;;;;;;7372857;19;20371;-75
2022/11/12 02:05:10;;;;;;;3.25;2.67;;;5.90;99.90;;;;;;7377021;19;20331;-75
2022/11/12 02:07:54;;;;;;;3.53;2.55;;;5.80;99.90;;;;;;7375075;19;20361;-76
2022/11/12 02:10:39;;;;;;;2.77;2.50;;;5.80;99.90;;;;;;7378497;19;20387;-77
2022/11/12 02:16:33;;;;;;;3.97;2.83;;;5.70;99.90;;;;;;7373741;19;21410;-76
2022/11/12 02:19:17;;;;;;;2.60;2.40;;;5.70;99.90;;;;;;7378602;19;20361;-75
2022/11/12 02:22:02;;;;;;;3.30;3.00;;;5.60;99.90;;;;;;7373423;19;20414;-76
2022/11/12 02:24:46;;;;;;;3.03;2.72;;;5.60;99.90;;;;;;7378391;19;20366;-76
2022/11/12 02:27:30;;;;;;;2.60;2.40;;;5.60;99.90;;;;;;7373661;19;20806;-75
2022/11/12 02:30:14;;;;;;;2.50;2.30;;;5.50;99.90;;;;;;7378811;19;20455;-77
2022/11/12 02:32:58;;;;;;;2.60;2.40;;;5.60;99.90;;;;;;7373405;19;20551;-76
2022/11/12 02:35:42;;;;;;;2.90;2.40;;;5.60;99.90;;;;;;7380114;19;20336;-76
2022/11/12 02:38:26;;;;;;;2.15;2.05;;;5.60;99.90;;;;;;7375124;19;20378;-76
2022/11/12 02:41:10;;;;;;;2.45;2.25;;;5.60;99.90;;;;;;7376126;19;20368;-76
2022/11/12 02:43:54;;;;;;;3.05;2.75;;;5.50;99.90;;;;;;7376544;19;20372;-77
2022/11/12 02:46:38;;;;;;;2.35;2.15;;;5.50;99.90;;;;;;7381038;19;20356;-77
2022/11/12 02:49:23;;;;;;;2.63;2.38;;;5.50;99.90;;;;;;7381003;19;20367;-77
2022/11/12 02:52:07;;;;;;;2.67;2.40;;;5.40;99.90;;;;;;7373190;19;20915;-77
2022/11/12 02:54:51;;;;;;;2.50;2.20;;;5.40;99.90;;;;;;7379656;19;20372;-76
2022/11/12 02:57:35;;;;;;;2.40;2.20;;;5.40;99.90;;;;;;7374215;19;20341;-76
2022/11/12 03:00:20;;;;;;;2.55;2.30;;;5.30;99.90;;;;;;7375475;19;20473;-76
2022/11/12 03:03:04;;;;;;;2.33;2.13;;;5.30;99.90;;;;;;7373129;19;20392;-76
2022/11/12 03:05:58;;;;;;;2.55;2.35;;;5.30;99.90;;;;;;7376584;19;20370;-76
2022/11/12 03:08:43;;;;;;;2.40;2.17;;;5.20;99.90;;;;;;7375895;19;20808;-77
2022/11/12 03:11:27;;;;;;;2.55;2.30;;;5.20;99.90;;;;;;7374343;19;20911;-77
2022/11/12 03:14:11;;;;;;;2.40;2.20;;;5.10;99.90;;;;;;7374778;19;20377;-75
2022/11/12 03:16:55;;;;;;;2.50;2.30;;;5.10;99.90;;;;;;7373491;19;20343;-76
2022/11/12 03:19:39;;;;;;;2.63;2.42;;;5.00;99.90;;;;;;7377017;19;20481;-76
2022/11/12 03:22:24;;;;;;;3.05;2.75;;;5.10;99.90;;;;;;7371540;19;20363;-76
2022/11/12 03:25:08;;;;;;;3.00;2.75;;;5.00;99.90;;;;;;7375925;19;21081;-75
2022/11/12 03:28:09;;;;;;;2.40;2.20;;;5.00;99.90;;;;;;7373518;19;20344;-76
2022/11/12 03:30:56;;;;;;;2.75;2.47;;;5.00;99.90;;;;;;7374852;19;21344;-76
2022/11/12 03:33:41;;;;;;;2.60;2.40;;;4.90;99.90;;;;;;7373258;19;21385;-77
2022/11/12 03:36:26;;;;;;;2.65;2.45;;;4.90;99.90;;;;;;7375636;19;20381;-76
2022/11/12 03:39:10;;;;;;;2.65;2.28;;;5.00;99.90;;;;;;7377263;19;20359;-76
2022/11/12 03:41:54;;;;;;;2.50;2.30;;;5.00;99.90;;;;;;7370305;19;20340;-76
2022/11/12 03:44:38;;;;;;;2.80;2.47;;;5.00;99.90;;;;;;7376480;19;20931;-75
2022/11/12 03:47:22;;;;;;;3.30;2.53;;;5.00;99.90;;;;;;7371562;19;20459;-75
2022/11/12 03:50:06;;;;;;;2.88;2.67;;;4.90;99.90;;;;;;7377840;19;20347;-76
2022/11/12 03:52:52;;;;;;;2.80;2.60;;;4.90;99.90;;;;;;7372983;19;20383;-76
2022/11/12 03:55:37;;;;;;;2.45;2.25;;;4.90;99.90;;;;;;7375217;19;20319;-77
2022/11/12 03:58:21;;;;;;;2.25;2.03;;;4.80;99.90;;;;;;7373610;19;20361;-75
2022/11/12 04:01:05;;;;;;;2.80;2.60;;;4.80;99.90;;;;;;7375541;19;20357;-76
2022/11/12 04:03:50;;;;;;;2.60;2.40;;;4.80;99.90;;;;;;7369716;19;21293;-75
2022/11/12 04:09:37;;;;;;;2.67;2.47;;;4.70;99.90;;;;;;7377029;19;20331;-76
2022/11/12 04:15:23;;;;;;;2.63;2.42;;;4.70;99.90;;;;;;7375691;19;20404;-76
2022/11/12 04:26:21;;;;;;;2.80;2.60;;;4.60;99.90;;;;;;7373486;19;20377;-76
2022/11/12 04:27:22;;;;;;;2.67;2.47;;;4.60;99.90;;;;;;7371696;19;20718;-76
2022/11/12 04:30:17;;;;;;;3.00;2.60;;;4.50;99.90;;;;;;7375382;19;20353;-76
2022/11/12 04:33:01;;;;;;;3.03;2.65;;;4.50;99.90;;;;;;7374206;19;20389;-75
2022/11/12 04:35:46;;;;;;;3.05;2.75;;;4.40;99.90;;;;;;7379139;19;20359;-76
2022/11/12 04:38:30;;;;;;;3.17;2.87;;;4.30;99.90;;;;;;7374498;19;20332;-75
2022/11/12 04:47:20;;;;;;;2.75;2.55;;;4.30;99.90;;;;;;7371641;19;20370;-76
2022/11/12 04:50:07;;;;;;;2.80;2.60;;;4.30;99.90;;;;;;7374153;19;20355;-77
2022/11/12 04:52:51;;;;;;;3.25;2.22;;;4.20;99.90;;;;;;7368386;19;20388;-75
2022/11/12 04:55:35;;;;;;;3.88;2.53;;;4.20;99.90;;;;;;7372362;19;20334;-75
2022/11/12 04:58:20;;;;;;;2.90;2.60;;;4.20;99.90;;;;;;7370364;19;21229;-76
2022/11/12 05:01:04;;;;;;;3.07;2.77;;;4.10;99.90;;;;;;7371523;19;20494;-78
2022/11/12 05:03:48;;;;;;;2.70;2.50;;;4.20;99.90;;;;;;7369253;19;21116;-77
2022/11/12 05:06:50;;;;;;;2.70;2.50;;;4.10;99.90;;;;;;7374728;19;20359;-76
2022/11/12 05:09:35;;;;;;;3.47;2.63;;;4.10;99.90;;;;;;7374640;19;20350;-76
2022/11/12 05:12:19;;;;;;;2.90;2.70;;;4.10;99.90;;;;;;7368900;19;20375;-77
2022/11/12 05:15:03;;;;;;;3.13;2.72;;;4.10;99.90;;;;;;7372795;19;20897;-77
2022/11/12 05:17:47;;;;;;;2.72;2.53;;;4.00;99.90;;;;;;7371868;19;20336;-76
2022/11/12 05:20:31;;;;;;;3.10;2.80;;;4.00;99.90;;;;;;7372246;19;20352;-76
2022/11/12 05:23:15;;;;;;;3.53;3.00;;;4.00;99.90;;;;;;7368148;19;20396;-76
2022/11/12 05:25:59;;;;;;;3.10;2.85;;;4.00;99.90;;;;;;7372838;19;20448;-76
2022/11/12 05:28:43;;;;;;;2.88;2.58;;;4.00;99.90;;;;;;7368626;19;20527;-75
2022/11/12 05:31:27;;;;;;;2.97;2.67;;;3.90;99.90;;;;;;7369087;19;20351;-76
2022/11/12 05:34:12;;;;;;;2.70;2.47;;;3.90;99.90;;;;;;7369198;19;20352;-75
2022/11/12 05:36:56;;;;;;;2.42;2.28;;;4.00;99.90;;;;;;7371096;19;20363;-76
2022/11/12 05:39:40;;;;;;;2.70;2.50;;;4.00;99.90;;;;;;7372888;19;20356;-76
2022/11/12 05:42:24;;;;;;;2.50;2.20;;;4.00;99.90;;;;;;7366091;19;21254;-76
2022/11/12 05:45:08;;;;;;;2.50;2.30;;;3.90;99.90;;;;;;7374008;19;20351;-77
2022/11/12 05:47:52;;;;;;;2.30;2.10;;;3.80;99.90;;;;;;7370441;19;20368;-77
2022/11/12 05:50:36;;;;;;;1.70;1.60;;;3.70;99.90;;;;;;7371341;19;20946;-76
2022/11/12 05:53:20;;;;;;;1.50;1.40;;;3.60;99.90;;;;;;7369153;19;20902;-76
2022/11/12 05:56:05;;;;;;;1.70;1.60;;;3.50;99.90;;;;;;7371351;19;20445;-75
2022/11/12 05:58:49;;;;;;;1.85;1.75;;;3.50;99.90;;;;;;7370900;19;20380;-76
2022/11/12 06:01:37;;;;;;;2.10;1.48;;;3.50;99.90;;;;;;7368870;19;20381;-75
2022/11/12 06:04:22;;;;;;;2.00;1.90;;;3.50;99.90;;;;;;7369722;19;20972;-76
2022/11/12 06:07:06;;;;;;;2.30;1.80;;;3.50;99.90;;;;;;7368735;19;20360;-75
2022/11/12 06:09:50;;;;;;;2.97;2.00;;;3.50;99.90;;;;;;7371907;19;20360;-76
2022/11/12 06:12:34;;;;;;;2.08;1.98;;;3.50;99.90;;;;;;7366852;19;20389;-76
2022/11/12 06:15:18;;;;;;;2.55;2.35;;;3.50;99.90;;;;;;7371211;19;20370;-75
2022/11/12 06:18:03;;;;;;;2.70;2.50;;;3.50;99.90;;;;;;7369687;19;20356;-76
2022/11/12 06:21:18;;;;;;;3.83;2.83;;;3.50;99.90;;;;;;7374081;19;20712;-75
2022/11/12 06:23:55;;;;;;;3.35;3.05;;;3.50;99.90;;;;;;7369826;19;20427;-76
2022/11/12 06:26:39;;;;;;;2.45;2.25;;;3.50;99.90;;;;;;7372895;19;21070;-75
2022/11/12 06:29:23;;;;;;;3.85;3.10;;;3.40;99.90;;;;;;7378056;19;20413;-77
2022/11/12 06:32:08;;;;;;;2.50;2.03;;;3.40;99.90;;;;;;7370974;19;21007;-76
2022/11/12 06:34:52;;;;;;;2.40;2.20;;;3.50;99.90;;;;;;7376555;19;20366;-77
2022/11/12 06:37:36;;;;;;;1.90;1.80;;;3.50;99.90;;;;;;7377056;19;20345;-75
2022/11/12 06:40:21;;;;;;;2.03;1.92;;;3.40;99.90;;;;;;7373586;19;20361;-75
2022/11/12 06:43:08;;;;;;;1.88;1.77;;;3.40;99.90;;;;;;7369135;19;21309;-76
2022/11/12 06:45:52;;;;;;;2.70;2.10;;;3.30;99.90;;;;;;7376041;19;20331;-77
2022/11/12 06:48:37;;;;;;;2.42;2.22;;;3.40;99.90;;;;;;7373150;19;20456;-76
2022/11/12 06:51:21;;;;;;;3.47;3.17;;;3.40;99.90;;;;;;7375062;19;20355;-76
2022/11/12 06:54:06;;;;;;;2.60;2.40;;;3.30;99.90;;;;;;7374970;19;20372;-76
2022/11/12 06:56:50;;;;;;;3.20;2.90;;;3.30;99.90;;;;;;7374074;19;20377;-75
2022/11/12 06:59:34;;;;;;;2.85;2.55;;;3.30;99.90;;;;;;7376402;19;20367;-76
2022/11/12 07:02:18;;;;;;;2.90;2.70;;;3.30;99.90;;;;;;7371068;19;20339;-77
2022/11/12 07:05:02;;;;;;;3.13;2.60;;;3.40;99.90;;;;;;7376309;19;20331;-75
2022/11/12 07:07:46;;;;;;;2.40;2.20;;;3.40;99.90;;;;;;7372316;19;20371;-75
2022/11/12 07:10:30;;;;;;;2.50;2.30;;;3.50;99.90;;;;;;7376376;19;20499;-76
2022/11/12 07:13:15;;;;;;;2.83;2.23;;;3.50;99.90;;;;;;7372788;19;20373;-75
2022/11/12 07:15:59;;;;;;;3.20;2.70;;;3.60;99.90;;;;;;7375249;19;20332;-75
2022/11/12 07:18:47;;;;;;;2.67;2.47;;;3.50;99.90;;;;;;7373891;19;20356;-76
2022/11/12 07:21:31;;;;;;;3.17;2.88;;;3.60;99.90;;;;;;7371828;19;20939;-74
2022/11/12 07:24:15;;;;;;;3.60;2.60;;;3.80;99.90;;;;;;7374145;19;20961;-76
2022/11/12 07:26:59;;;;;;;3.88;2.67;;;3.70;99.90;;;;;;7373414;19;20377;-74
2022/11/12 07:29:43;;;;;;;5.20;4.70;;;3.80;99.90;;;;;;7377718;19;20913;-74
2022/11/12 07:32:28;;;;;;;7.40;6.63;;;3.80;99.90;;;;;;7371060;19;20447;-75
2022/11/12 07:35:14;;;;;;;4.47;3.95;;;3.80;99.90;;;;;;7373216;19;20352;-76
2022/11/12 07:37:58;;;;;;;5.60;4.03;;;3.90;99.90;;;;;;7375327;19;20377;-73
2022/11/12 07:40:42;;;;;;;4.57;3.88;;;3.90;99.90;;;;;;7374817;19;20404;-74
2022/11/12 07:43:31;;;;;;;3.88;3.55;;;3.90;99.90;;;;;;7379010;19;21034;-73
2022/11/12 07:46:19;;;;;;;4.05;3.65;;;4.00;99.90;;;;;;7379091;19;20379;-74
2022/11/12 07:49:03;;;;;;;4.53;3.70;;;4.00;99.90;;;;;;7378003;19;20370;-75
2022/11/12 07:51:48;;;;;;;3.60;3.30;;;4.10;99.90;;;;;;7372983;19;20394;-79
2022/11/12 07:54:31;;;;;;;3.53;3.08;;;4.20;99.90;;;;;;7375993;19;20355;-74
2022/11/12 07:57:15;;;;;;;4.80;3.70;;;4.20;99.90;;;;;;7380591;19;20367;-72
2022/11/12 07:59:59;;;;;;;3.58;3.25;;;4.30;99.90;;;;;;7379036;19;20368;-75
2022/11/12 08:02:44;;;;;;;3.78;3.47;;;4.30;99.90;;;;;;7368058;19;20368;-73
2022/11/12 08:05:28;;;;;;;3.67;3.28;;;4.30;99.90;;;;;;7376175;19;21058;-75
2022/11/12 08:08:12;;;;;;;3.60;3.30;;;4.30;99.90;;;;;;7380522;19;20336;-75
2022/11/12 08:10:57;;;;;;;4.07;3.28;;;4.40;99.90;;;;;;7372538;19;20781;-75
2022/11/12 08:13:41;;;;;;;3.97;3.60;;;4.40;99.90;;;;;;7370754;19;20383;-75
2022/11/12 08:16:26;;;;;;;6.95;6.20;;;4.50;99.90;;;;;;7370351;19;21341;-76
2022/11/12 08:19:10;;;;;;;6.50;5.78;;;4.60;99.90;;;;;;7373214;19;20485;-76
2022/11/12 08:21:54;;;;;;;5.55;5.05;;;4.60;99.90;;;;;;7364649;19;20785;-75
2022/11/12 08:24:38;;;;;;;13.85;10.57;;;4.70;99.90;;;;;;7371746;19;20353;-77
2022/11/12 08:27:22;;;;;;;7.07;6.38;;;4.80;99.90;;;;;;7367513;19;21220;-76
2022/11/12 08:30:07;;;;;;;8.55;7.65;;;4.90;99.90;;;;;;7370818;19;20359;-75
2022/11/12 08:32:59;;;;;;;6.80;5.57;;;5.00;99.90;;;;;;7365245;19;20443;-73
2022/11/12 08:35:43;;;;;;;5.63;4.90;;;5.10;99.90;;;;;;7366074;19;20355;-74
2022/11/12 08:38:27;;;;;;;7.18;4.82;;;5.20;99.90;;;;;;7370648;19;21482;-74
2022/11/12 08:41:12;;;;;;;4.43;4.00;;;5.20;99.90;;;;;;7371735;19;20344;-76
2022/11/12 08:43:56;;;;;;;4.13;3.63;;;5.20;99.90;;;;;;7366037;19;20380;-72
2022/11/12 08:46:41;;;;;;;4.72;4.25;;;5.30;99.90;;;;;;7366078;19;20699;-75
2022/11/12 08:49:25;;;;;;;4.77;4.37;;;5.30;99.90;;;;;;7369441;19;20370;-75
2022/11/12 08:52:09;;;;;;;6.97;5.82;;;5.30;99.90;;;;;;7366514;19;20367;-74
2022/11/12 08:54:53;;;;;;;9.95;8.25;;;5.50;99.90;;;;;;7370495;19;20720;-75
2022/11/12 08:57:41;;;;;;;5.68;5.10;;;5.40;99.90;;;;;;7366606;19;20335;-74
2022/11/12 09:00:25;;;;;;;4.72;4.20;;;5.50;99.90;;;;;;7367582;19;20351;-75
2022/11/12 09:03:15;;;;;;;4.23;3.80;;;5.60;99.90;;;;;;7362250;19;20413;-74
2022/11/12 09:06:02;;;;;;;4.05;3.65;;;5.70;99.90;;;;;;7364409;19;20378;-75
2022/11/12 09:08:46;;;;;;;4.05;3.65;;;5.80;99.90;;;;;;7364764;19;20356;-75
2022/11/12 09:11:30;;;;;;;4.72;4.32;;;5.90;99.90;;;;;;7364118;19;21302;-76
2022/11/12 09:14:14;;;;;;;5.35;4.78;;;6.10;99.90;;;;;;7364983;19;20372;-75
2022/11/12 09:16:58;;;;;;;4.53;4.13;;;6.30;99.90;;;;;;7366343;19;20412;-74
2022/11/12 09:19:42;;;;;;;6.10;4.75;;;6.50;99.90;;;;;;7369981;19;21010;-75
2022/11/12 09:22:27;;;;;;;4.75;4.35;;;6.70;99.90;;;;;;7366235;19;20356;-75
2022/11/12 09:25:11;;;;;;;5.75;4.40;;;6.70;99.90;;;;;;7370167;19;20353;-75
2022/11/12 09:27:55;;;;;;;6.10;5.10;;;6.90;99.90;;;;;;7367080;19;20379;-75
2022/11/12 09:30:47;;;;;;;4.53;4.13;;;7.00;99.90;;;;;;7367614;19;20368;-75
2022/11/12 09:33:31;;;;;;;4.43;3.97;;;7.20;99.90;;;;;;7362130;19;20401;-75
2022/11/12 09:36:16;;;;;;;5.22;4.72;;;7.30;99.90;;;;;;7367686;19;20363;-75
2022/11/12 09:39:00;;;;;;;5.63;4.80;;;7.40;99.90;;;;;;7373212;19;20384;-75
2022/11/12 09:41:45;;;;;;;4.50;4.10;;;7.50;99.90;;;;;;7369752;19;20664;-75
2022/11/12 09:44:30;;;;;;;4.70;4.30;;;7.60;99.90;;;;;;7373984;19;20447;-76
2022/11/12 09:47:35;;;;;;;5.40;4.53;;;7.80;99.90;;;;;;7374668;19;20396;-76
2022/11/12 09:50:39;;;;;;;4.90;4.13;;;7.90;99.90;;;;;;7377558;19;20347;-75
2022/11/12 09:53:34;;;;;;;4.87;3.80;;;8.00;99.90;;;;;;7372323;19;20377;-76
2022/11/12 09:56:19;;;;;;;5.80;4.47;;;8.10;99.90;;;;;;7372971;19;20360;-75
2022/11/12 09:59:10;;;;;;;4.90;4.35;;;8.20;99.90;;;;;;7367073;19;20384;-75
2022/11/12 10:02:03;;;;;;;5.05;3.72;;;8.40;99.90;;;;;;7369564;19;21303;-76
2022/11/12 10:05:16;;;;;;;4.70;4.30;;;8.50;99.90;;;;;;7374942;19;20357;-76
2022/11/12 10:08:03;;;;;;;4.78;4.00;;;8.60;99.90;;;;;;7373637;19;20996;-76
2022/11/12 10:10:49;;;;;;;4.35;3.95;;;8.70;99.90;;;;;;7376652;19;20785;-77
2022/11/12 10:14:09;;;;;;;6.30;4.03;;;8.80;99.90;;;;;;7370673;19;20379;-78
2022/11/12 10:17:02;;;;;;;4.30;3.60;;;8.90;99.90;;;;;;7377939;19;20366;-75
2022/11/12 10:19:58;;;;;;;3.88;3.58;;;9.00;99.90;;;;;;7378596;19;20384;-75
2022/11/12 10:23:05;;;;;;;4.78;4.03;;;9.20;99.90;;;;;;7374439;19;20384;-74
2022/11/12 10:25:50;;;;;;;4.60;4.13;;;9.20;99.90;;;;;;7375022;19;20944;-75
2022/11/12 10:28:58;;;;;;;5.60;4.20;;;9.30;99.90;;;;;;7374382;19;20899;-75
2022/11/12 10:31:42;;;;;;;3.70;3.40;;;9.30;99.90;;;;;;7375124;19;20373;-76
2022/11/12 10:34:26;;;;;;;4.47;3.60;;;9.40;99.90;;;;;;7375503;19;20354;-76
2022/11/12 10:37:26;;;;;;;3.40;3.10;;;9.50;99.90;;;;;;7375449;19;20348;-75
2022/11/12 10:40:37;;;;;;;4.63;3.42;;;9.70;99.90;;;;;;7377603;19;20363;-77
2022/11/12 10:43:23;;;;;;;3.10;2.80;;;9.90;99.90;;;;;;7374995;19;20371;-76
2022/11/12 10:46:18;;;;;;;5.65;3.78;;;10.00;99.90;;;;;;7379792;19;20364;-79
2022/11/12 10:49:22;;;;;;;4.30;3.47;;;10.10;99.90;;;;;;7376376;19;20470;-75
2022/11/12 10:52:18;;;;;;;4.05;3.60;;;10.10;99.90;;;;;;7372532;19;20810;-77
2022/11/12 10:55:35;;;;;;;4.90;3.58;;;10.30;99.90;;;;;;7376468;19;21316;-76
2022/11/12 10:58:20;;;;;;;5.43;3.90;;;10.30;99.90;;;;;;7373139;19;21006;-77
2022/11/12 11:01:11;;;;;;;3.83;3.10;;;10.50;99.90;;;;;;7373976;19;20388;-78
2022/11/12 11:03:56;;;;;;;4.15;3.58;;;10.70;99.90;;;;;;7372814;19;20360;-77
2022/11/12 11:06:40;;;;;;;4.07;3.40;;;10.90;99.90;;;;;;7377099;19;20605;-78
2022/11/12 11:09:25;;;;;;;4.70;4.00;;;11.10;99.90;;;;;;7380597;19;21318;-78
2022/11/12 11:12:42;;;;;;;4.40;3.50;;;11.20;99.90;;;;;;7373271;19;21009;-78
2022/11/12 11:15:26;;;;;;;5.88;4.78;;;11.50;99.90;;;;;;7379274;19;20902;-78
2022/11/12 11:18:10;;;;;;;5.65;4.55;;;11.60;99.90;;;;;;7377586;19;20376;-77
2022/11/12 11:21:07;;;;;;;6.60;4.70;;;11.80;99.90;;;;;;7380508;19;20344;-78
2022/11/12 11:23:56;;;;;;;6.30;4.55;;;11.90;99.90;;;;;;7375836;19;20384;-77
2022/11/12 11:27:01;;;;;;;4.90;3.70;;;12.10;99.90;;;;;;7377324;19;20922;-79
2022/11/12 11:30:12;;;;;;;4.82;4.22;;;12.40;99.90;;;;;;7382994;19;20373;-82
2022/11/12 11:33:22;;;;;;;5.38;3.90;;;12.60;99.90;;;;;;7376772;19;20375;-76
2022/11/12 11:36:28;;;;;;;6.63;4.70;;;12.80;99.90;;;;;;7378903;19;20390;-79
2022/11/12 11:39:20;;;;;;;5.03;3.92;;;12.90;99.90;;;;;;7375670;19;20369;-77
2022/11/12 11:42:05;;;;;;;6.25;4.40;;;13.10;99.90;;;;;;7371595;19;20365;-78
2022/11/12 11:44:57;;;;;;;7.40;5.00;;;13.40;99.90;;;;;;7374742;19;20341;-78
2022/11/12 11:47:50;;;;;;;7.05;4.55;;;13.60;99.90;;;;;;7370494;19;20480;-77
2022/11/12 11:50:38;;;;;;;5.47;4.10;;;13.80;99.90;;;;;;7375506;19;20378;-77
2022/11/12 11:53:48;;;;;;;6.53;4.97;;;14.10;99.90;;;;;;7367422;19;22168;-77
2022/11/12 11:56:35;;;;;;;5.97;4.30;;;14.10;99.90;;;;;;7373427;19;20339;-77
2022/11/12 11:59:44;;;;;;;5.90;4.45;;;14.20;99.90;;;;;;7373517;19;20364;-77
2022/11/12 12:02:54;;;;;;;42.72;29.70;;;14.40;99.90;;;;;;7368117;19;20363;-78
2022/11/12 12:05:43;;;;;;;15.18;11.68;;;14.40;99.90;;;;;;7374228;19;20377;-77
2022/11/12 12:08:38;;;;;;;5.88;4.82;;;14.30;99.90;;;;;;7369022;19;20537;-77
2022/11/12 12:11:28;;;;;;;5.23;4.10;;;14.50;99.90;;;;;;7370729;19;20368;-78
2022/11/12 12:14:31;;;;;;;4.22;3.83;;;14.40;99.90;;;;;;7370639;19;20355;-79
2022/11/12 12:17:47;;;;;;;7.63;6.38;;;14.30;99.90;;;;;;7369950;19;20352;-78
2022/11/12 12:20:47;;;;;;;5.97;4.25;;;14.00;99.90;;;;;;7368264;19;20355;-78
2022/11/12 12:23:47;;;;;;;6.80;4.95;;;13.80;99.90;;;;;;7363957;19;20374;-77
2022/11/12 12:26:37;;;;;;;5.93;4.53;;;13.50;99.90;;;;;;7372119;19;20417;-77
2022/11/12 12:29:32;;;;;;;6.10;4.87;;;13.40;99.90;;;;;;7370798;19;21100;-77
2022/11/12 12:32:19;;;;;;;6.10;4.93;;;13.30;99.90;;;;;;7367502;19;20366;-75
2022/11/12 12:35:36;;;;;;;11.57;8.90;;;13.30;99.90;;;;;;7372157;19;20348;-76
2022/11/12 12:38:53;;;;;;;12.98;9.65;;;13.20;99.90;;;;;;7371151;19;20362;-75
2022/11/12 12:42:01;;;;;;;6.93;4.30;;;13.20;99.90;;;;;;7367521;19;20349;-76
2022/11/12 12:44:59;;;;;;;6.35;5.22;;;13.20;99.90;;;;;;7372720;19;20344;-77
2022/11/12 12:47:43;;;;;;;7.03;5.68;;;13.40;99.90;;;;;;7368691;19;20363;-77
2022/11/12 12:50:27;;;;;;;5.60;4.85;;;13.20;99.90;;;;;;7371374;19;20335;-75
2022/11/12 12:53:15;;;;;;;5.32;4.63;;;13.10;99.90;;;;;;7366979;19;20343;-75
2022/11/12 12:56:26;;;;;;;7.28;4.95;;;13.10;99.90;;;;;;7372004;19;20358;-76
2022/11/12 12:59:23;;;;;;;8.77;6.57;;;13.40;99.90;;;;;;7367772;19;20368;-75
2022/11/12 13:02:23;;;;;;;7.38;5.35;;;13.50;99.90;;;;;;7367412;19;20376;-76
2022/11/12 13:05:25;;;;;;;7.80;5.10;;;13.80;99.90;;;;;;7370730;19;20419;-75
2022/11/12 13:08:19;;;;;;;5.45;4.63;;;13.60;99.90;;;;;;7373862;19;20442;-77
2022/11/12 13:11:04;;;;;;;5.60;4.82;;;13.40;99.90;;;;;;7376417;19;20356;-77
2022/11/12 13:13:48;;;;;;;5.07;4.33;;;13.50;99.90;;;;;;7372444;19;20379;-75
2022/11/12 13:16:54;;;;;;;7.35;5.22;;;13.40;99.90;;;;;;7369672;19;21081;-77
2022/11/12 13:19:57;;;;;;;5.28;4.10;;;13.20;99.90;;;;;;7369690;19;21136;-77
2022/11/12 13:22:41;;;;;;;6.15;4.30;;;12.90;99.90;;;;;;7371107;19;20348;-76
2022/11/12 13:25:27;;;;;;;4.95;3.90;;;12.90;99.90;;;;;;7371119;19;20893;-78
2022/11/12 13:28:13;;;;;;;6.22;4.70;;;12.80;99.90;;;;;;7370052;19;20381;-77
2022/11/12 13:30:57;;;;;;;6.65;4.93;;;13.00;99.90;;;;;;7371638;19;20351;-76
2022/11/12 13:33:41;;;;;;;5.22;3.90;;;13.10;99.90;;;;;;7371320;19;21025;-76
2022/11/12 13:36:27;;;;;;;5.47;4.10;;;13.20;99.90;;;;;;7379446;19;20361;-77
2022/11/12 13:39:14;;;;;;;5.13;4.40;;;13.30;99.90;;;;;;7380834;19;20359;-78
2022/11/12 13:45:01;;;;;;;3.45;3.15;;;13.40;99.90;;;;;;7381498;19;20334;-77
2022/11/12 13:47:45;;;;;;;5.35;3.58;;;13.40;99.90;;;;;;7377352;19;20397;-77
2022/11/12 13:50:30;;;;;;;5.68;3.92;;;13.50;99.90;;;;;;7380442;19;21161;-77
2022/11/12 13:53:18;;;;;;;4.53;3.67;;;13.50;99.90;;;;;;7384584;19;20375;-77
2022/11/12 13:56:02;;;;;;;4.05;3.25;;;13.40;99.90;;;;;;7387559;19;20439;-78
2022/11/12 13:58:47;;;;;;;3.55;3.22;;;13.20;99.90;;;;;;7380644;19;20352;-78
2022/11/12 14:01:31;;;;;;;3.60;3.10;;;13.10;99.90;;;;;;7381028;19;20702;-77
2022/11/12 14:04:17;;;;;;;3.80;3.30;;;13.10;99.90;;;;;;7380110;19;20372;-79
2022/11/12 14:07:24;;;;;;;4.78;2.97;;;13.10;99.90;;;;;;7378916;19;20373;-78
2022/11/12 14:10:30;;;;;;;4.65;3.30;;;13.00;99.90;;;;;;7377774;19;20351;-75
2022/11/12 14:13:38;;;;;;;3.55;2.85;;;12.90;99.90;;;;;;7057358;19;10000832;-77
2022/11/12 14:16:37;;;;;;;5.00;2.95;;;12.70;99.90;;;;;;6605716;19;10002581;-76
2022/11/12 14:19:27;;;;;;;3.50;3.20;;;12.60;99.90;;;;;;7372491;19;20954;-76
2022/11/12 14:22:16;;;;;;;4.00;3.50;;;12.50;99.90;;;;;;7368730;19;20331;-77
2022/11/12 14:25:00;;;;;;;3.90;3.20;;;12.50;99.90;;;;;;7375884;19;20328;-81
2022/11/12 14:27:46;;;;;;;5.15;3.42;;;12.30;99.90;;;;;;7373478;19;20456;-76
2022/11/12 14:30:30;;;;;;;5.00;3.63;;;12.30;99.90;;;;;;7374756;19;20359;-77
2022/11/12 14:33:20;;;;;;;4.67;3.97;;;12.20;99.90;;;;;;7369355;19;20397;-76
2022/11/12 14:36:12;;;;;;;4.00;3.60;;;12.10;99.90;;;;;;7375541;19;20351;-77
2022/11/12 14:38:56;;;;;;;4.43;3.65;;;12.00;99.90;;;;;;7375194;19;20363;-80
2022/11/12 14:41:41;;;;;;;4.38;3.70;;;11.90;99.90;;;;;;7375068;19;20377;-81
2022/11/12 14:44:35;;;;;;;4.37;3.97;;;11.80;99.90;;;;;;7372469;19;21316;-75
2022/11/12 14:47:19;;;;;;;10.15;5.90;;;11.70;99.90;;;;;;7370551;19;20315;-77
2022/11/12 14:50:03;;;;;;;6.57;4.93;;;11.60;99.90;;;;;;7374984;19;20361;-77
2022/11/12 14:52:48;;;;;;;7.90;5.65;;;11.50;99.90;;;;;;7372009;19;21327;-77
2022/11/12 14:55:34;;;;;;;11.93;7.18;;;11.30;99.90;;;;;;7375111;19;20347;-77
2022/11/12 14:58:19;;;;;;;9.60;6.82;;;11.10;99.90;;;;;;7376288;19;21191;-78
2022/11/12 15:01:20;;;;;;;7.57;6.18;;;11.00;99.90;;;;;;7371967;19;20397;-77
2022/11/12 15:04:10;;;;;;;8.82;6.38;;;10.80;99.90;;;;;;7371372;19;20401;-77
2022/11/12 15:06:55;;;;;;;10.70;7.40;;;10.70;99.90;;;;;;7370581;19;20389;-77